createdAt,value
2022-08-21T00:00:09.175Z,76586.63
2022-08-21T00:02:36.200Z,76586.63
2022-08-21T00:05:03.637Z,76586.63
2022-08-21T00:07:30.124Z,76578.63
2022-08-21T00:09:57.066Z,76574.63
2022-08-21T00:12:23.801Z,76572.63
2022-08-21T00:14:50.277Z,76562.59
2022-08-21T00:17:21.261Z,76564.59
2022-08-21T00:19:47.700Z,76568.59
2022-08-21T00:22:14.146Z,76566.59
2022-08-21T00:24:40.801Z,76576.63
2022-08-21T00:27:07.380Z,76574.63
2022-08-21T00:29:33.907Z,76570.59
2022-08-21T00:32:00.787Z,76574.63
2022-08-21T00:34:27.927Z,76574.63
2022-08-21T00:36:54.806Z,76576.63
2022-08-21T00:39:21.243Z,76578.63
2022-08-21T00:41:47.661Z,76574.63
2022-08-21T00:44:15.133Z,76580.63
2022-08-21T00:46:42.321Z,76578.63
2022-08-21T00:49:09.627Z,76584.63
2022-08-21T00:51:39.665Z,76584.63
2022-08-21T00:54:10.718Z,76584.63
2022-08-21T00:56:46.278Z,76586.63
2022-08-21T00:59:13.736Z,76582.63
2022-08-21T01:01:40.246Z,76588.63
2022-08-21T01:04:06.747Z,76584.63
2022-08-21T01:06:33.433Z,76586.63
2022-08-21T01:09:00.100Z,76590.63
2022-08-21T01:11:26.506Z,76590.63
2022-08-21T01:13:53.332Z,76596.63
2022-08-21T01:16:21.279Z,76590.63
2022-08-21T01:18:49.010Z,76594.63
2022-08-21T01:21:23.331Z,76594.63
2022-08-21T01:23:55.821Z,76594.63
2022-08-21T01:26:29.075Z,76596.63
2022-08-21T01:29:20.993Z,76596.63
2022-08-21T01:31:47.407Z,76598.63
2022-08-21T01:34:14.383Z,76600.63
2022-08-21T01:36:40.838Z,76602.63
2022-08-21T01:39:07.427Z,76602.63
2022-08-21T01:41:33.863Z,76602.63
2022-08-21T01:44:00.515Z,76598.63
2022-08-21T01:46:26.912Z,76600.63
2022-08-21T01:48:53.464Z,76594.63
2022-08-21T01:51:19.972Z,76588.63
2022-08-21T01:53:46.375Z,76584.63
2022-08-21T01:56:13.947Z,76582.63
2022-08-21T01:58:44.036Z,76582.63
2022-08-21T02:01:10.726Z,76578.63
2022-08-21T02:03:37.659Z,76578.63
2022-08-21T02:06:05.128Z,76576.63
2022-08-21T02:08:32.215Z,76574.63
2022-08-21T02:10:58.696Z,76574.63
2022-08-21T02:13:25.102Z,76574.63
2022-08-21T02:15:51.558Z,76572.63
2022-08-21T02:18:17.934Z,76574.63
2022-08-21T02:20:46.331Z,76566.59
2022-08-21T02:23:13.439Z,76570.59
2022-08-21T02:25:40.033Z,76574.63
2022-08-21T02:28:07.971Z,76574.63
2022-08-21T02:30:36.667Z,76578.63
2022-08-21T02:33:03.157Z,76576.63
2022-08-21T02:35:29.580Z,76576.63
2022-08-21T02:37:58.511Z,76574.63
2022-08-21T02:40:26.979Z,76570.59
2022-08-21T02:42:53.693Z,76570.59
2022-08-21T02:45:20.914Z,76570.59
2022-08-21T02:47:52.103Z,76570.59
2022-08-21T02:50:23.942Z,76570.59
2022-08-21T02:52:55.118Z,76566.59
2022-08-21T02:55:23.067Z,76570.59
2022-08-21T02:57:49.448Z,76572.63
2022-08-21T03:00:16.147Z,76572.63
2022-08-21T03:02:42.634Z,76570.59
2022-08-21T03:05:11.069Z,76570.59
2022-08-21T03:07:38.591Z,76574.63
2022-08-21T03:10:05.627Z,76574.63
2022-08-21T03:12:32.086Z,76574.63
2022-08-21T03:14:58.868Z,76574.63
2022-08-21T03:17:29.986Z,76576.63
2022-08-21T03:19:57.555Z,76578.63
2022-08-21T03:22:24.018Z,76578.63
2022-08-21T03:24:50.864Z,76574.63
2022-08-21T03:27:18.763Z,76574.63
2022-08-21T03:29:46.495Z,76574.63
2022-08-21T03:32:12.916Z,76576.63
2022-08-21T03:34:39.659Z,76574.63
2022-08-21T03:37:07.871Z,76578.63
2022-08-21T03:39:35.311Z,76582.63
2022-08-21T03:42:02.199Z,76580.63
2022-08-21T03:44:30.142Z,76582.63
2022-08-21T03:46:57.119Z,76586.63
2022-08-21T03:49:24.926Z,76584.63
2022-08-21T03:51:59.893Z,76586.63
2022-08-21T03:54:26.520Z,76586.63
2022-08-21T03:56:55.488Z,76590.63
2022-08-21T03:59:22.041Z,76592.63
2022-08-21T04:01:58.834Z,76594.63
2022-08-21T04:04:25.438Z,76598.63
2022-08-21T04:06:51.911Z,76598.63
2022-08-21T04:09:18.648Z,76598.63
2022-08-21T04:11:46.415Z,76602.63
2022-08-21T04:14:13.083Z,76598.63
2022-08-21T04:16:39.519Z,76600.63
2022-08-21T04:19:05.971Z,76596.63
2022-08-21T04:21:32.925Z,76594.63
2022-08-21T04:24:00.332Z,76598.63
2022-08-21T04:26:26.982Z,76598.63
2022-08-21T04:28:53.447Z,76600.63
2022-08-21T04:31:19.908Z,76606.63
2022-08-21T04:33:46.375Z,76602.63
2022-08-21T04:36:13.025Z,76606.63
2022-08-21T04:38:39.754Z,76606.63
2022-08-21T04:41:11.201Z,76602.63
2022-08-21T04:43:38.700Z,76602.63
2022-08-21T04:46:06.740Z,76606.63
2022-08-21T04:48:36.825Z,76610.63
2022-08-21T04:51:03.186Z,76606.63
2022-08-21T04:53:32.882Z,76610.63
2022-08-21T04:56:02.394Z,76610.63
2022-08-21T04:58:29.791Z,76610.63
2022-08-21T05:00:57.728Z,76610.63
2022-08-21T05:03:24.359Z,76614.66
2022-08-21T05:05:50.970Z,76618.66
2022-08-21T05:08:19.057Z,76618.66
2022-08-21T05:10:45.710Z,76618.66
2022-08-21T05:13:13.687Z,76618.66
2022-08-21T05:15:40.831Z,76622.66
2022-08-21T05:18:08.065Z,76626.66
2022-08-21T05:20:37.458Z,76630.66
2022-08-21T05:23:10.701Z,76630.66
2022-08-21T05:25:37.132Z,76626.66
2022-08-21T05:28:03.930Z,76624.66
2022-08-21T05:30:30.423Z,76628.66
2022-08-21T05:33:01.012Z,76626.66
2022-08-21T05:35:28.139Z,76630.66
2022-08-21T05:37:54.737Z,76630.66
2022-08-21T05:40:23.389Z,76634.66
2022-08-21T05:42:55.367Z,76634.66
2022-08-21T05:45:41.296Z,76634.66
2022-08-21T05:48:21.185Z,76634.66
2022-08-21T05:50:48.246Z,76632.66
2022-08-21T05:53:15.452Z,76634.66
2022-08-21T05:55:45.734Z,76628.66
2022-08-21T05:58:17.586Z,76632.66
2022-08-21T06:00:44.874Z,76630.66
2022-08-21T06:03:12.174Z,76630.66
2022-08-21T06:05:38.763Z,76628.66
2022-08-21T06:08:05.191Z,76626.66
2022-08-21T06:10:32.329Z,76630.66
2022-08-21T06:12:58.930Z,76626.66
2022-08-21T06:15:25.458Z,76626.66
2022-08-21T06:17:53.378Z,76628.66
2022-08-21T06:20:19.844Z,76624.66
2022-08-21T06:22:46.270Z,76634.66
2022-08-21T06:25:12.728Z,76632.66
2022-08-21T06:27:39.225Z,76632.66
2022-08-21T06:30:06.220Z,76630.66
2022-08-21T06:32:32.665Z,76634.66
2022-08-21T06:34:59.889Z,76628.66
2022-08-21T06:37:26.360Z,76634.66
2022-08-21T06:39:53.163Z,76632.66
2022-08-21T06:42:19.972Z,76630.66
2022-08-21T06:44:47.021Z,76630.66
2022-08-21T06:47:13.435Z,76630.66
2022-08-21T06:49:40.362Z,76626.66
2022-08-21T06:52:13.765Z,76628.66
2022-08-21T06:54:40.605Z,76632.66
2022-08-21T06:57:07.268Z,76630.66
2022-08-21T06:59:33.770Z,76626.66
2022-08-21T07:02:00.770Z,76626.66
2022-08-21T07:04:27.493Z,76624.66
2022-08-21T07:06:53.923Z,76622.66
2022-08-21T07:09:24.410Z,76628.66
2022-08-21T07:11:52.888Z,76622.66
2022-08-21T07:14:20.296Z,76628.66
2022-08-21T07:16:47.264Z,76630.66
2022-08-21T07:19:13.799Z,76630.66
2022-08-21T07:21:40.181Z,76616.66
2022-08-21T07:24:06.587Z,76624.66
2022-08-21T07:26:33.083Z,76624.66
2022-08-21T07:28:59.475Z,76626.66
2022-08-21T07:31:26.329Z,76618.66
2022-08-21T07:33:53.181Z,76628.66
2022-08-21T07:36:19.630Z,76622.66
2022-08-21T07:38:46.356Z,76626.66
2022-08-21T07:41:17.819Z,76630.66
2022-08-21T07:43:45.971Z,76626.66
2022-08-21T07:46:13.589Z,76628.66
2022-08-21T07:48:40.356Z,76626.66
2022-08-21T07:51:08.747Z,76630.66
2022-08-21T07:53:35.681Z,76624.66
2022-08-21T07:56:02.648Z,76624.66
2022-08-21T07:58:29.816Z,76622.66
2022-08-21T08:00:56.538Z,76622.66
2022-08-21T08:03:28.835Z,76618.66
2022-08-21T08:05:55.842Z,76622.66
2022-08-21T08:08:22.456Z,76620.66
2022-08-21T08:10:50.479Z,76622.66
2022-08-21T08:13:20.198Z,76624.66
2022-08-21T08:15:46.751Z,76626.66
2022-08-21T08:18:13.891Z,76630.66
2022-08-21T08:20:40.348Z,76624.66
2022-08-21T08:23:06.852Z,76626.66
2022-08-21T08:25:36.819Z,76628.66
2022-08-21T08:28:17.308Z,76626.66
2022-08-21T08:30:44.698Z,76630.66
2022-08-21T08:33:11.582Z,76626.66
2022-08-21T08:35:39.045Z,76622.66
2022-08-21T08:38:06.687Z,76630.66
2022-08-21T08:41:01.050Z,76622.66
2022-08-21T08:43:28.406Z,76614.66
2022-08-21T08:45:56.619Z,76608.63
2022-08-21T08:48:34.196Z,76594.63
2022-08-21T08:51:01.888Z,76592.63
2022-08-21T08:53:33.742Z,76586.63
2022-08-21T08:56:01.885Z,76584.63
2022-08-21T08:58:31.333Z,76578.63
2022-08-21T09:00:58.010Z,76574.63
2022-08-21T09:03:25.285Z,76578.63
2022-08-21T09:06:10.789Z,76574.63
2022-08-21T09:09:03.427Z,76578.63
2022-08-21T09:11:54.259Z,76578.63
2022-08-21T09:14:27.405Z,76580.63
2022-08-21T09:17:06.035Z,76582.63
2022-08-21T09:19:50.599Z,76582.63
2022-08-21T09:22:19.911Z,76586.63
2022-08-21T09:24:58.525Z,76586.63
2022-08-21T09:27:25.187Z,76586.63
2022-08-21T09:29:53.413Z,76584.63
2022-08-21T09:32:22.355Z,76582.63
2022-08-21T09:34:59.607Z,76582.63
2022-08-21T09:37:27.136Z,76578.63
2022-08-21T09:39:53.589Z,76586.63
2022-08-21T09:42:24.876Z,76586.63
2022-08-21T09:45:05.814Z,76594.63
2022-08-21T09:47:33.422Z,76588.63
2022-08-21T09:50:08.259Z,76586.63
2022-08-21T09:52:35.151Z,76586.63
2022-08-21T09:55:21.619Z,76586.63
2022-08-21T09:57:50.230Z,76590.63
2022-08-21T10:00:20.823Z,76592.63
2022-08-21T10:02:47.576Z,76592.63
2022-08-21T10:05:19.364Z,76598.63
2022-08-21T10:07:45.942Z,76594.63
2022-08-21T10:10:18.488Z,76590.63
2022-08-21T10:12:59.895Z,76594.63
2022-08-21T10:15:43.311Z,76590.63
2022-08-21T10:18:23.000Z,76594.63
2022-08-21T10:21:11.739Z,76590.63
2022-08-21T10:23:47.656Z,76594.63
2022-08-21T10:26:14.645Z,76590.63
2022-08-21T10:28:41.116Z,76592.63
2022-08-21T10:31:27.759Z,76594.63
2022-08-21T10:34:23.703Z,76596.63
2022-08-21T10:36:50.074Z,76594.63
2022-08-21T10:39:35.485Z,76598.63
2022-08-21T10:42:05.685Z,76604.63
2022-08-21T10:44:45.369Z,76602.63
2022-08-21T10:47:30.691Z,76602.63
2022-08-21T10:50:15.862Z,76602.63
2022-08-21T10:52:44.083Z,76598.63
2022-08-21T10:55:15.627Z,76602.63
2022-08-21T10:57:57.364Z,76602.63
2022-08-21T11:00:27.871Z,76602.63
2022-08-21T11:02:57.784Z,76602.63
2022-08-21T11:05:34.281Z,76598.63
2022-08-21T11:08:07.958Z,76596.63
2022-08-21T11:10:51.322Z,76594.63
2022-08-21T11:13:34.275Z,76602.63
2022-08-21T11:16:03.685Z,76598.63
2022-08-21T11:18:40.967Z,76596.63
2022-08-21T11:21:26.968Z,76594.63
2022-08-21T11:24:18.127Z,76600.63
2022-08-21T11:27:04.846Z,76604.63
2022-08-21T11:29:35.998Z,76608.63
2022-08-21T11:32:13.664Z,76606.63
2022-08-21T11:35:09.103Z,76610.63
2022-08-21T11:37:38.564Z,76600.63
2022-08-21T11:40:25.749Z,76606.63
2022-08-21T11:43:15.487Z,76606.63
2022-08-21T11:45:52.854Z,76602.63
2022-08-21T11:48:41.362Z,76602.63
2022-08-21T11:51:13.794Z,76598.63
2022-08-21T11:54:16.191Z,76596.63
2022-08-21T11:56:46.611Z,76602.63
2022-08-21T11:59:20.948Z,76604.63
2022-08-21T12:01:49.431Z,76598.63
2022-08-21T12:04:22.386Z,76600.63
2022-08-21T12:06:53.000Z,76598.63
2022-08-21T12:09:25.258Z,76598.63
2022-08-21T12:12:01.243Z,76602.63
2022-08-21T12:14:42.968Z,76596.63
2022-08-21T12:17:20.353Z,76602.63
2022-08-21T12:19:57.955Z,76604.63
2022-08-21T12:22:36.240Z,76602.63
2022-08-21T12:25:10.866Z,76606.63
2022-08-21T12:28:00.193Z,76598.63
2022-08-21T12:30:29.398Z,76598.63
2022-08-21T12:32:57.778Z,76598.63
2022-08-21T12:35:44.574Z,76598.63
2022-08-21T12:38:20.113Z,76598.63
2022-08-21T12:41:01.657Z,76590.63
2022-08-21T12:43:36.935Z,76596.63
2022-08-21T12:46:05.467Z,76594.63
2022-08-21T12:49:03.057Z,76594.63
2022-08-21T12:51:37.443Z,76596.63
2022-08-21T12:54:04.296Z,76594.63
2022-08-21T12:56:31.915Z,76598.63
2022-08-21T12:59:04.531Z,76602.63
2022-08-21T13:01:46.924Z,76590.63
2022-08-21T13:04:16.690Z,76594.63
2022-08-21T13:06:47.303Z,76592.63
2022-08-21T13:09:17.076Z,76590.63
2022-08-21T13:11:45.617Z,76590.63
2022-08-21T13:14:21.144Z,76592.63
2022-08-21T13:16:48.181Z,76580.63
2022-08-21T13:19:23.940Z,76590.63
2022-08-21T13:21:50.691Z,76588.63
2022-08-21T13:24:41.402Z,76592.63
2022-08-21T13:27:16.151Z,76592.63
2022-08-21T13:29:42.572Z,76588.63
2022-08-21T13:32:22.133Z,76588.63
2022-08-21T13:34:48.975Z,76590.63
2022-08-21T13:37:21.637Z,76590.63
2022-08-21T13:39:52.975Z,76584.63
2022-08-21T13:42:20.242Z,76582.63
2022-08-21T13:44:47.903Z,76586.63
2022-08-21T13:47:16.162Z,76590.63
2022-08-21T13:49:47.127Z,76592.63
2022-08-21T13:52:20.367Z,76588.63
2022-08-21T13:54:53.648Z,76588.63
2022-08-21T13:57:40.793Z,76590.63
2022-08-21T14:00:15.771Z,76592.63
2022-08-21T14:02:44.390Z,76580.63
2022-08-21T14:05:16.986Z,76574.63
2022-08-21T14:07:43.851Z,76578.63
2022-08-21T14:10:18.970Z,76568.59
2022-08-21T14:12:48.490Z,76572.63
2022-08-21T14:15:16.216Z,76566.59
2022-08-21T14:17:43.307Z,76560.59
2022-08-21T14:20:11.398Z,76566.59
2022-08-21T14:22:40.726Z,76558.59
2022-08-21T14:25:09.135Z,76558.59
2022-08-21T14:27:37.415Z,76560.59
2022-08-21T14:30:17.326Z,76558.59
2022-08-21T14:32:44.837Z,76556.59
2022-08-21T14:35:13.295Z,76554.59
2022-08-21T14:37:42.988Z,76554.59
2022-08-21T14:40:09.856Z,76558.59
2022-08-21T14:42:36.668Z,76562.59
2022-08-21T14:45:23.807Z,76558.59
2022-08-21T14:47:54.560Z,76562.59
2022-08-21T14:50:21.151Z,76558.59
2022-08-21T14:52:47.602Z,76562.59
2022-08-21T14:55:15.286Z,76562.59
2022-08-21T14:57:50.787Z,76560.59
2022-08-21T15:00:18.779Z,76554.59
2022-08-21T15:02:45.486Z,76566.59
2022-08-21T15:05:12.010Z,76560.59
2022-08-21T15:07:39.272Z,76566.59
2022-08-21T15:10:09.363Z,76560.59
2022-08-21T15:12:36.627Z,76560.59
2022-08-21T15:15:03.218Z,76562.59
2022-08-21T15:17:29.713Z,76560.59
2022-08-21T15:19:56.259Z,76562.59
2022-08-21T15:22:27.896Z,76556.59
2022-08-21T15:24:54.886Z,76554.59
2022-08-21T15:27:21.424Z,76550.59
2022-08-21T15:29:48.013Z,76558.59
2022-08-21T15:32:23.443Z,76564.59
2022-08-21T15:34:50.698Z,76564.59
2022-08-21T15:37:17.093Z,76568.59
2022-08-21T15:39:44.248Z,76562.59
2022-08-21T15:42:13.531Z,76556.59
2022-08-21T15:44:41.153Z,76554.59
2022-08-21T15:47:12.205Z,76560.59
2022-08-21T15:49:38.667Z,76562.59
2022-08-21T15:52:05.136Z,76566.59
2022-08-21T15:54:31.675Z,76570.59
2022-08-21T15:56:58.623Z,76570.59
2022-08-21T15:59:26.238Z,76570.59
2022-08-21T16:01:52.985Z,76570.59
2022-08-21T16:04:24.662Z,76570.59
2022-08-21T16:06:55.646Z,76572.63
2022-08-21T16:09:23.578Z,76570.59
2022-08-21T16:11:50.407Z,76572.63
2022-08-21T16:14:17.529Z,76570.59
2022-08-21T16:16:43.978Z,76570.59
2022-08-21T16:19:11.639Z,76570.59
2022-08-21T16:21:38.083Z,76570.59
2022-08-21T16:24:05.099Z,76570.59
2022-08-21T16:26:31.912Z,76576.63
2022-08-21T16:29:01.261Z,76578.63
2022-08-21T16:31:27.948Z,76580.63
2022-08-21T16:33:57.881Z,76578.63
2022-08-21T16:36:26.657Z,76578.63
2022-08-21T16:38:56.631Z,76582.63
2022-08-21T16:41:24.054Z,76586.63
2022-08-21T16:43:51.426Z,76582.63
2022-08-21T16:46:18.844Z,76586.63
2022-08-21T16:48:45.319Z,76584.63
2022-08-21T16:51:12.660Z,76578.63
2022-08-21T16:53:39.078Z,76576.63
2022-08-21T16:56:06.907Z,76586.63
2022-08-21T16:58:35.358Z,76578.63
2022-08-21T17:01:05.888Z,76584.63
2022-08-21T17:03:35.015Z,76586.63
2022-08-21T17:06:01.558Z,76590.63
2022-08-21T17:08:28.319Z,76590.63
2022-08-21T17:10:54.979Z,76590.63
2022-08-21T17:13:21.778Z,76588.63
2022-08-21T17:15:48.163Z,76590.63
2022-08-21T17:18:16.343Z,76590.63
2022-08-21T17:20:42.763Z,76586.63
2022-08-21T17:23:09.522Z,76594.63
2022-08-21T17:25:40.202Z,76590.63
2022-08-21T17:28:07.725Z,76596.63
2022-08-21T17:30:34.302Z,76598.63
2022-08-21T17:33:01.185Z,76592.63
2022-08-21T17:35:27.631Z,76600.63
2022-08-21T17:37:54.151Z,76602.63
2022-08-21T17:40:21.405Z,76598.63
2022-08-21T17:42:48.371Z,76596.63
2022-08-21T17:45:16.448Z,76594.63
2022-08-21T17:47:43.428Z,76594.63
2022-08-21T17:50:12.228Z,76586.63
2022-08-21T17:52:38.852Z,76582.63
2022-08-21T17:55:06.351Z,76578.63
2022-08-21T17:57:35.243Z,76566.59
2022-08-21T18:00:02.585Z,76560.59
2022-08-21T18:02:30.569Z,76554.59
2022-08-21T18:04:57.046Z,76554.59
2022-08-21T18:07:31.743Z,76554.59
2022-08-21T18:09:59.959Z,76550.59
2022-08-21T18:12:27.227Z,76554.59
2022-08-21T18:14:53.699Z,76558.59
2022-08-21T18:17:21.331Z,76560.59
2022-08-21T18:19:49.027Z,76566.59
2022-08-21T18:22:16.101Z,76568.59
2022-08-21T18:24:43.769Z,76566.59
2022-08-21T18:27:10.503Z,76574.63
2022-08-21T18:29:47.507Z,76572.63
2022-08-21T18:32:30.538Z,76578.63
2022-08-21T18:34:59.268Z,76576.63
2022-08-21T18:37:26.376Z,76580.63
2022-08-21T18:39:52.930Z,76582.63
2022-08-21T18:42:19.455Z,76582.63
2022-08-21T18:44:50.655Z,76584.63
2022-08-21T18:47:32.638Z,76588.63
2022-08-21T18:49:59.178Z,76594.63
2022-08-21T18:52:28.609Z,76590.63
2022-08-21T18:54:56.036Z,76594.63
2022-08-21T18:57:24.551Z,76590.63
2022-08-21T18:59:51.132Z,76594.63
2022-08-21T19:02:17.796Z,76592.63
2022-08-21T19:04:45.183Z,76590.63
2022-08-21T19:07:13.854Z,76590.63
2022-08-21T19:09:40.644Z,76594.63
2022-08-21T19:12:10.362Z,76598.63
2022-08-21T19:14:40.921Z,76596.63
2022-08-21T19:17:08.607Z,76596.63
2022-08-21T19:19:36.294Z,76596.63
2022-08-21T19:22:06.235Z,76602.63
2022-08-21T19:24:37.416Z,76610.63
2022-08-21T19:27:03.912Z,76606.63
2022-08-21T19:29:34.600Z,76602.63
2022-08-21T19:32:03.218Z,76596.63
2022-08-21T19:34:30.027Z,76598.63
2022-08-21T19:36:56.851Z,76600.63
2022-08-21T19:39:24.006Z,76602.63
2022-08-21T19:41:53.952Z,76606.63
2022-08-21T19:44:23.760Z,76610.63
2022-08-21T19:46:52.072Z,76606.63
2022-08-21T19:49:21.064Z,76606.63
2022-08-21T19:51:49.341Z,76606.63
2022-08-21T19:54:23.732Z,76606.63
2022-08-21T19:56:50.583Z,76606.63
2022-08-21T19:59:18.192Z,76608.63
2022-08-21T20:01:51.222Z,76610.63
2022-08-21T20:04:19.355Z,76610.63
2022-08-21T20:06:46.468Z,76608.63
2022-08-21T20:09:14.370Z,76614.66
2022-08-21T20:11:43.447Z,76614.66
2022-08-21T20:14:12.410Z,76618.66
2022-08-21T20:16:39.655Z,76614.66
2022-08-21T20:19:08.285Z,76614.66
2022-08-21T20:21:44.243Z,76618.66
2022-08-21T20:24:11.567Z,76618.66
2022-08-21T20:26:58.364Z,76622.66
2022-08-21T20:29:31.458Z,76622.66
2022-08-21T20:32:05.213Z,76622.66
2022-08-21T20:34:32.206Z,76622.66
2022-08-21T20:39:47.152Z,76622.66
2022-08-21T20:42:13.643Z,76626.66
2022-08-21T20:44:46.476Z,76628.66
2022-08-21T20:47:13.597Z,76626.66
2022-08-21T20:49:46.603Z,76626.66
2022-08-21T20:52:14.584Z,76626.66
2022-08-21T20:54:44.051Z,76628.66
2022-08-21T20:57:16.685Z,76630.66
2022-08-21T20:59:50.330Z,76632.66
2022-08-21T21:02:16.687Z,76630.66
2022-08-21T21:04:48.102Z,76630.66
2022-08-21T21:07:21.126Z,76634.66
2022-08-21T21:09:48.931Z,76636.66
2022-08-21T21:12:27.954Z,76636.66
2022-08-21T21:14:58.339Z,76634.66
2022-08-21T21:17:47.458Z,76634.66
2022-08-21T21:20:21.105Z,76632.66
2022-08-21T21:22:55.147Z,76634.66
2022-08-21T21:25:21.539Z,76630.66
2022-08-21T21:27:53.184Z,76630.66
2022-08-21T21:30:27.119Z,76632.66
2022-08-21T21:32:53.584Z,76638.66
2022-08-21T21:35:32.277Z,76636.66
2022-08-21T21:38:07.210Z,76646.66
2022-08-21T21:40:46.414Z,76646.66
2022-08-21T21:43:18.783Z,76644.66
2022-08-21T21:46:03.919Z,76646.66
2022-08-21T21:48:56.234Z,76650.66
2022-08-21T21:51:40.857Z,76650.66
2022-08-21T21:54:27.550Z,76646.66
2022-08-21T21:56:55.331Z,76650.66
2022-08-21T21:59:30.598Z,76650.66
2022-08-21T22:02:13.343Z,76652.66
2022-08-21T22:04:52.106Z,76650.66
2022-08-21T22:07:21.266Z,76650.66
2022-08-21T22:10:05.440Z,76650.66
2022-08-21T22:13:09.888Z,76650.66
2022-08-21T22:15:37.648Z,76646.66
2022-08-21T22:18:11.770Z,76652.66
2022-08-21T22:20:41.681Z,76638.66
2022-08-21T22:23:13.372Z,76650.66
2022-08-21T22:25:44.795Z,76640.66
2022-08-21T22:28:13.710Z,76638.66
2022-08-21T22:30:42.410Z,76638.66
2022-08-21T22:33:26.114Z,76642.66
2022-08-21T22:35:54.563Z,76638.66
2022-08-21T22:38:29.186Z,76644.66
2022-08-21T22:41:19.154Z,76638.66
2022-08-21T22:43:54.798Z,76646.66
2022-08-21T22:46:27.410Z,76646.66
2022-08-21T22:48:58.486Z,76646.66
2022-08-21T22:51:33.687Z,76658.69
2022-08-21T22:54:01.234Z,76654.66
2022-08-21T22:56:32.695Z,76658.69
2022-08-21T22:59:02.213Z,76656.69
2022-08-21T23:01:33.391Z,76654.66
2022-08-21T23:04:12.227Z,76654.66
2022-08-21T23:06:43.479Z,76648.66
2022-08-21T23:09:39.381Z,76648.66
2022-08-21T23:14:54.769Z,76650.66
2022-08-21T23:17:29.292Z,76658.69
2022-08-21T23:20:04.589Z,76658.69
2022-08-21T23:22:43.249Z,76660.69
2022-08-21T23:25:09.654Z,76658.69
2022-08-21T23:27:36.087Z,76654.66
2022-08-21T23:30:23.394Z,76658.69
2022-08-21T23:33:07.300Z,76654.66
2022-08-21T23:36:09.211Z,76658.69
2022-08-21T23:38:44.505Z,76660.69
2022-08-21T23:41:34.125Z,76658.69
2022-08-21T23:44:04.109Z,76658.69
2022-08-21T23:46:49.789Z,76660.69
2022-08-21T23:49:35.047Z,76662.69
2022-08-21T23:52:07.644Z,76666.69
2022-08-21T23:54:34.132Z,76658.69
2022-08-21T23:57:00.676Z,76670.69
2022-08-21T23:59:36.276Z,76660.69
